首页
METAR-TAF:

METAR-TAF

机场 :

韦斯卡, 西班牙

纬度: 42-04-32N, 经度: 0-18-58W, 海拔: 539米

当前天气观测

该预报发布于21分钟前的02:30 UTC
风速14节,风向西
温度 4°C
湿度 81%
气压 1010 hPa
能见度10公里或以上

METAR: LEHC 170230Z AUTO 27014KT 9999 NCD 04/01 Q1010

时间: 03:51 (02:51 UTC)

预报

该预报发布于51分钟前的02:00 UTC
预报有效从17日的 03点(UTC)到 18日的 03点(UTC)
风速9节,风向西
能见度10公里或以上
散云层高于3000英尺
几率 40% :
短暂存在
从 17日的 12点(UTC)到 17日的 23点(UTC)
多云层高于4000英尺
成为
从 17日的 17点(UTC)到 17日的 19点(UTC)
风速5节,风向西转西北

TAF: LEHC 170200Z 1703/1803 28009KT 9999 SCT030 TX10/1713Z TN03/1706Z PROB40 TEMPO 1712/1723 RA BKN040 BECMG 1717/1719 30005KT

超过4000个机场的气象观测和天气预报(METAR&TAF报告)。

可查询的气象台以黄色和红色小点在地图上表示。

将鼠标移到小点上方,可查看气象台名称。

然后点击查看天气观测和预报。

如需切换地图:点击带黑十字的绿色按钮放大地图;点击带横线的绿色按钮缩小地图;或者点击绿色箭头查看邻近地区的地图。


METAR-TAF: